sensor_id;sensor_type;location;lat;lon;timestamp;P1;durP1;ratioP1;P2;durP2;ratioP2
23082;SDS011;11709;52.420;10.538;2023-03-01T00:03:24;0.00;;;0.00;;
23082;SDS011;11709;52.420;10.538;2023-03-01T00:07:26;0.10;;;0.10;;
23082;SDS011;11709;52.420;10.538;2023-03-01T00:11:29;0.00;;;0.00;;
23082;SDS011;11709;52.420;10.538;2023-03-01T00:15:32;0.00;;;0.00;;
23082;SDS011;11709;52.420;10.538;2023-03-01T00:19:36;0.00;;;0.00;;
23082;SDS011;11709;52.420;10.538;2023-03-01T00:23:38;0.00;;;0.00;;
23082;SDS011;11709;52.420;10.538;2023-03-01T00:27:40;0.00;;;0.00;;
23082;SDS011;11709;52.420;10.538;2023-03-01T00:31:43;0.00;;;0.00;;
23082;SDS011;11709;52.420;10.538;2023-03-01T00:35:45;0.10;;;0.10;;
23082;SDS011;11709;52.420;10.538;2023-03-01T00:39:47;0.10;;;0.10;;
23082;SDS011;11709;52.420;10.538;2023-03-01T00:43:50;0.00;;;0.00;;
23082;SDS011;11709;52.420;10.538;2023-03-01T00:47:52;0.00;;;0.00;;
23082;SDS011;11709;52.420;10.538;2023-03-01T00:51:54;0.00;;;0.00;;
23082;SDS011;11709;52.420;10.538;2023-03-01T00:55:57;0.00;;;0.00;;
23082;SDS011;11709;52.420;10.538;2023-03-01T00:59:59;0.00;;;0.00;;
23082;SDS011;11709;52.420;10.538;2023-03-01T01:04:03;0.00;;;0.00;;
23082;SDS011;11709;52.420;10.538;2023-03-01T01:08:06;0.00;;;0.00;;
23082;SDS011;11709;52.420;10.538;2023-03-01T01:12:08;0.00;;;0.00;;
23082;SDS011;11709;52.420;10.538;2023-03-01T01:16:10;0.00;;;0.00;;
23082;SDS011;11709;52.420;10.538;2023-03-01T01:20:13;0.00;;;0.00;;
23082;SDS011;11709;52.420;10.538;2023-03-01T01:24:15;0.00;;;0.00;;
23082;SDS011;11709;52.420;10.538;2023-03-01T01:28:17;0.00;;;0.00;;
23082;SDS011;11709;52.420;10.538;2023-03-01T01:32:20;0.00;;;0.00;;
23082;SDS011;11709;52.420;10.538;2023-03-01T01:36:21;1048.93;;;964.33;;
23082;SDS011;11709;52.420;10.538;2023-03-01T01:40:24;1060.77;;;980.07;;
23082;SDS011;11709;52.420;10.538;2023-03-01T01:44:27;1220.53;;;999.90;;
23082;SDS011;11709;52.420;10.538;2023-03-01T01:48:41;1160.37;;;999.90;;
23082;SDS011;11709;52.420;10.538;2023-03-01T01:52:44;975.63;;;901.73;;
23082;SDS011;11709;52.420;10.538;2023-03-01T01:56:52;899.63;;;835.27;;
23082;SDS011;11709;52.420;10.538;2023-03-01T02:00:54;736.83;;;696.63;;
23082;SDS011;11709;52.420;10.538;2023-03-01T02:05:03;753.07;;;712.70;;
23082;SDS011;11709;52.420;10.538;2023-03-01T02:09:06;691.67;;;654.47;;
23082;SDS011;11709;52.420;10.538;2023-03-01T02:13:08;706.17;;;668.70;;
23082;SDS011;11709;52.420;10.538;2023-03-01T02:17:12;0.10;;;0.10;;
23082;SDS011;11709;52.420;10.538;2023-03-01T02:29:55;0.00;;;0.00;;
23082;SDS011;11709;52.420;10.538;2023-03-01T02:33:57;2.12;;;1.02;;
23082;SDS011;11709;52.420;10.538;2023-03-01T02:38:00;0.00;;;0.00;;
23082;SDS011;11709;52.420;10.538;2023-03-01T02:42:03;0.10;;;0.10;;
23082;SDS011;11709;52.420;10.538;2023-03-01T02:46:07;3.85;;;2.98;;
23082;SDS011;11709;52.420;10.538;2023-03-01T02:54:31;0.00;;;0.00;;
23082;SDS011;11709;52.420;10.538;2023-03-01T02:58:32;980.13;;;893.60;;
23082;SDS011;11709;52.420;10.538;2023-03-01T03:02:36;1111.17;;;999.90;;
23082;SDS011;11709;52.420;10.538;2023-03-01T03:06:39;1192.10;;;999.90;;
23082;SDS011;11709;52.420;10.538;2023-03-01T03:10:42;1120.07;;;999.90;;
23082;SDS011;11709;52.420;10.538;2023-03-01T03:14:44;992.27;;;916.00;;
23082;SDS011;11709;52.420;10.538;2023-03-01T03:18:47;883.30;;;829.23;;
23082;SDS011;11709;52.420;10.538;2023-03-01T03:22:50;863.77;;;810.87;;
23082;SDS011;11709;52.420;10.538;2023-03-01T03:26:52;870.33;;;818.67;;
23082;SDS011;11709;52.420;10.538;2023-03-01T03:30:54;888.07;;;835.23;;
23082;SDS011;11709;52.420;10.538;2023-03-01T03:34:56;818.90;;;770.60;;
23082;SDS011;11709;52.420;10.538;2023-03-01T03:38:59;761.83;;;716.70;;
23082;SDS011;11709;52.420;10.538;2023-03-01T03:43:02;857.27;;;806.97;;
23082;SDS011;11709;52.420;10.538;2023-03-01T03:47:04;870.63;;;819.60;;
23082;SDS011;11709;52.420;10.538;2023-03-01T03:51:08;843.63;;;794.37;;
23082;SDS011;11709;52.420;10.538;2023-03-01T03:55:11;823.27;;;774.40;;
23082;SDS011;11709;52.420;10.538;2023-03-01T03:59:13;814.77;;;767.43;;
23082;SDS011;11709;52.420;10.538;2023-03-01T04:03:16;793.47;;;747.53;;
23082;SDS011;11709;52.420;10.538;2023-03-01T04:07:21;788.77;;;743.80;;
23082;SDS011;11709;52.420;10.538;2023-03-01T04:11:23;756.83;;;713.20;;
23082;SDS011;11709;52.420;10.538;2023-03-01T04:15:28;819.07;;;771.40;;
23082;SDS011;11709;52.420;10.538;2023-03-01T04:19:31;808.57;;;761.20;;
23082;SDS011;11709;52.420;10.538;2023-03-01T04:23:36;849.17;;;798.27;;
23082;SDS011;11709;52.420;10.538;2023-03-01T04:27:40;808.33;;;761.23;;
23082;SDS011;11709;52.420;10.538;2023-03-01T04:31:42;828.17;;;779.93;;
23082;SDS011;11709;52.420;10.538;2023-03-01T04:35:44;783.63;;;737.47;;
23082;SDS011;11709;52.420;10.538;2023-03-01T04:39:49;850.70;;;799.90;;
23082;SDS011;11709;52.420;10.538;2023-03-01T04:43:51;816.33;;;767.37;;
23082;SDS011;11709;52.420;10.538;2023-03-01T04:47:54;834.17;;;785.00;;
23082;SDS011;11709;52.420;10.538;2023-03-01T04:51:57;816.73;;;767.73;;
23082;SDS011;11709;52.420;10.538;2023-03-01T04:56:02;800.40;;;752.43;;
23082;SDS011;11709;52.420;10.538;2023-03-01T05:00:06;804.50;;;756.57;;
23082;SDS011;11709;52.420;10.538;2023-03-01T05:04:10;769.30;;;724.97;;
23082;SDS011;11709;52.420;10.538;2023-03-01T05:08:14;781.47;;;735.80;;
23082;SDS011;11709;52.420;10.538;2023-03-01T05:12:19;808.02;;;761.83;;
23082;SDS011;11709;52.420;10.538;2023-03-01T05:16:21;734.90;;;692.03;;
23082;SDS011;11709;52.420;10.538;2023-03-01T05:20:24;769.57;;;725.27;;
23082;SDS011;11709;52.420;10.538;2023-03-01T05:24:27;832.10;;;783.97;;
23082;SDS011;11709;52.420;10.538;2023-03-01T05:28:30;811.23;;;764.93;;
23082;SDS011;11709;52.420;10.538;2023-03-01T05:32:32;802.40;;;756.17;;
23082;SDS011;11709;52.420;10.538;2023-03-01T05:36:35;713.57;;;672.97;;
23082;SDS011;11709;52.420;10.538;2023-03-01T05:40:36;794.43;;;749.47;;
23082;SDS011;11709;52.420;10.538;2023-03-01T05:44:39;809.33;;;763.03;;
23082;SDS011;11709;52.420;10.538;2023-03-01T05:48:42;801.70;;;755.03;;
23082;SDS011;11709;52.420;10.538;2023-03-01T05:52:45;776.80;;;731.53;;
23082;SDS011;11709;52.420;10.538;2023-03-01T05:56:47;794.70;;;749.10;;
23082;SDS011;11709;52.420;10.538;2023-03-01T06:00:50;817.67;;;770.27;;
23082;SDS011;11709;52.420;10.538;2023-03-01T06:04:53;775.13;;;729.83;;
23082;SDS011;11709;52.420;10.538;2023-03-01T06:08:55;736.60;;;693.50;;
23082;SDS011;11709;52.420;10.538;2023-03-01T06:12:57;735.73;;;693.73;;
23082;SDS011;11709;52.420;10.538;2023-03-01T06:17:00;755.03;;;711.20;;
23082;SDS011;11709;52.420;10.538;2023-03-01T06:21:02;772.93;;;728.43;;
23082;SDS011;11709;52.420;10.538;2023-03-01T06:25:05;747.63;;;704.07;;
23082;SDS011;11709;52.420;10.538;2023-03-01T06:29:07;777.00;;;732.07;;
23082;SDS011;11709;52.420;10.538;2023-03-01T06:33:10;782.83;;;737.27;;
23082;SDS011;11709;52.420;10.538;2023-03-01T06:37:12;771.90;;;727.30;;
23082;SDS011;11709;52.420;10.538;2023-03-01T06:41:14;773.50;;;728.30;;
23082;SDS011;11709;52.420;10.538;2023-03-01T06:45:17;783.93;;;738.13;;
23082;SDS011;11709;52.420;10.538;2023-03-01T06:49:20;794.60;;;747.67;;
23082;SDS011;11709;52.420;10.538;2023-03-01T06:53:22;785.33;;;738.53;;
23082;SDS011;11709;52.420;10.538;2023-03-01T06:57:24;791.97;;;744.23;;
23082;SDS011;11709;52.420;10.538;2023-03-01T07:01:27;787.33;;;740.50;;
23082;SDS011;11709;52.420;10.538;2023-03-01T07:05:30;848.87;;;797.93;;
23082;SDS011;11709;52.420;10.538;2023-03-01T07:09:32;843.33;;;792.47;;
23082;SDS011;11709;52.420;10.538;2023-03-01T07:13:34;830.80;;;780.37;;
23082;SDS011;11709;52.420;10.538;2023-03-01T07:17:37;909.73;;;847.33;;
23082;SDS011;11709;52.420;10.538;2023-03-01T07:21:39;1127.30;;;999.90;;
23082;SDS011;11709;52.420;10.538;2023-03-01T07:25:41;1052.13;;;974.17;;
23082;SDS011;11709;52.420;10.538;2023-03-01T07:29:44;1020.30;;;945.20;;
23082;SDS011;11709;52.420;10.538;2023-03-01T07:33:46;973.70;;;901.67;;
23082;SDS011;11709;52.420;10.538;2023-03-01T07:37:49;826.03;;;769.13;;
23082;SDS011;11709;52.420;10.538;2023-03-01T07:41:51;776.53;;;723.50;;
23082;SDS011;11709;52.420;10.538;2023-03-01T07:45:54;694.53;;;645.03;;
23082;SDS011;11709;52.420;10.538;2023-03-01T07:49:58;0.00;;;0.00;;
23082;SDS011;11709;52.420;10.538;2023-03-01T07:54:02;0.00;;;0.00;;
23082;SDS011;11709;52.420;10.538;2023-03-01T07:58:03;352.27;;;322.97;;
23082;SDS011;11709;52.420;10.538;2023-03-01T08:02:06;334.33;;;305.83;;
23082;SDS011;11709;52.420;10.538;2023-03-01T08:06:11;328.97;;;300.93;;
23082;SDS011;11709;52.420;10.538;2023-03-01T08:10:15;334.73;;;306.53;;
23082;SDS011;11709;52.420;10.538;2023-03-01T08:14:18;337.53;;;308.63;;
23082;SDS011;11709;52.420;10.538;2023-03-01T08:18:21;350.17;;;321.13;;
23082;SDS011;11709;52.420;10.538;2023-03-01T08:22:23;344.43;;;315.47;;
23082;SDS011;11709;52.420;10.538;2023-03-01T08:26:26;348.27;;;319.20;;
23082;SDS011;11709;52.420;10.538;2023-03-01T08:30:28;340.93;;;312.10;;
23082;SDS011;11709;52.420;10.538;2023-03-01T08:34:31;261.73;;;234.90;;
23082;SDS011;11709;52.420;10.538;2023-03-01T08:38:35;206.03;;;186.23;;
23082;SDS011;11709;52.420;10.538;2023-03-01T08:42:37;209.07;;;188.63;;
23082;SDS011;11709;52.420;10.538;2023-03-01T08:46:41;193.30;;;173.20;;
23082;SDS011;11709;52.420;10.538;2023-03-01T08:50:44;146.57;;;132.40;;
23082;SDS011;11709;52.420;10.538;2023-03-01T08:54:49;171.27;;;156.33;;
23082;SDS011;11709;52.420;10.538;2023-03-01T08:58:52;174.00;;;153.83;;
23082;SDS011;11709;52.420;10.538;2023-03-01T09:02:54;186.63;;;162.63;;
23082;SDS011;11709;52.420;10.538;2023-03-01T09:06:57;201.03;;;179.70;;
23082;SDS011;11709;52.420;10.538;2023-03-01T09:11:01;189.33;;;168.97;;
23082;SDS011;11709;52.420;10.538;2023-03-01T09:15:04;214.80;;;192.93;;
23082;SDS011;11709;52.420;10.538;2023-03-01T09:19:07;264.47;;;191.23;;
23082;SDS011;11709;52.420;10.538;2023-03-01T09:23:10;270.47;;;203.77;;
23082;SDS011;11709;52.420;10.538;2023-03-01T09:27:12;277.00;;;214.03;;
23082;SDS011;11709;52.420;10.538;2023-03-01T09:31:15;277.13;;;210.07;;
23082;SDS011;11709;52.420;10.538;2023-03-01T09:35:19;204.83;;;161.00;;
23082;SDS011;11709;52.420;10.538;2023-03-01T09:39:23;282.57;;;219.83;;
23082;SDS011;11709;52.420;10.538;2023-03-01T09:47:32;212.87;;;176.07;;
23082;SDS011;11709;52.420;10.538;2023-03-01T09:51:36;287.13;;;224.20;;
23082;SDS011;11709;52.420;10.538;2023-03-01T09:55:43;292.27;;;228.57;;
23082;SDS011;11709;52.420;10.538;2023-03-01T10:08:53;206.57;;;178.70;;
23082;SDS011;11709;52.420;10.538;2023-03-01T10:17:48;295.47;;;233.47;;
23082;SDS011;11709;52.420;10.538;2023-03-01T10:21:52;298.97;;;238.87;;
23082;SDS011;11709;52.420;10.538;2023-03-01T10:30:34;309.50;;;275.37;;
23082;SDS011;11709;52.420;10.538;2023-03-01T10:34:40;301.20;;;249.77;;
23082;SDS011;11709;52.420;10.538;2023-03-01T10:42:58;324.87;;;290.93;;
23082;SDS011;11709;52.420;10.538;2023-03-01T10:47:03;327.07;;;293.07;;
23082;SDS011;11709;52.420;10.538;2023-03-01T10:51:06;331.50;;;297.53;;
23082;SDS011;11709;52.420;10.538;2023-03-01T11:03:36;310.83;;;276.63;;
23082;SDS011;11709;52.420;10.538;2023-03-01T11:07:53;321.07;;;286.23;;
23082;SDS011;11709;52.420;10.538;2023-03-01T11:11:57;337.37;;;302.43;;
23082;SDS011;11709;52.420;10.538;2023-03-01T11:16:10;365.77;;;329.90;;
23082;SDS011;11709;52.420;10.538;2023-03-01T11:24:23;355.50;;;319.10;;
23082;SDS011;11709;52.420;10.538;2023-03-01T11:28:29;354.30;;;318.17;;
23082;SDS011;11709;52.420;10.538;2023-03-01T11:32:53;0.00;;;0.00;;
23082;SDS011;11709;52.420;10.538;2023-03-01T11:36:53;0.00;;;0.00;;
23082;SDS011;11709;52.420;10.538;2023-03-01T11:45:19;0.00;;;0.00;;
23082;SDS011;11709;52.420;10.538;2023-03-01T11:53:43;0.00;;;0.00;;
23082;SDS011;11709;52.420;10.538;2023-03-01T11:57:49;0.00;;;0.00;;
23082;SDS011;11709;52.420;10.538;2023-03-01T12:02:01;0.00;;;0.00;;
23082;SDS011;11709;52.420;10.538;2023-03-01T12:10:28;0.00;;;0.00;;
23082;SDS011;11709;52.420;10.538;2023-03-01T12:22:46;0.00;;;0.00;;
23082;SDS011;11709;52.420;10.538;2023-03-01T12:27:13;0.00;;;0.00;;
23082;SDS011;11709;52.420;10.538;2023-03-01T12:31:44;0.00;;;0.00;;
23082;SDS011;11709;52.420;10.538;2023-03-01T12:35:50;0.00;;;0.00;;
23082;SDS011;11709;52.420;10.538;2023-03-01T12:52:52;0.00;;;0.00;;
23082;SDS011;11709;52.420;10.538;2023-03-01T12:56:57;0.00;;;0.00;;
23082;SDS011;11709;52.420;10.538;2023-03-01T13:09:14;0.00;;;0.00;;
23082;SDS011;11709;52.420;10.538;2023-03-01T13:13:35;296.18;;;270.37;;
23082;SDS011;11709;52.420;10.538;2023-03-01T13:17:41;0.00;;;0.00;;
23082;SDS011;11709;52.420;10.538;2023-03-01T13:21:45;0.00;;;0.00;;
23082;SDS011;11709;52.420;10.538;2023-03-01T13:30:00;0.00;;;0.00;;
23082;SDS011;11709;52.420;10.538;2023-03-01T13:34:06;0.00;;;0.00;;
23082;SDS011;11709;52.420;10.538;2023-03-01T13:46:37;0.00;;;0.00;;
23082;SDS011;11709;52.420;10.538;2023-03-01T13:50:45;0.00;;;0.00;;
23082;SDS011;11709;52.420;10.538;2023-03-01T13:54:46;0.00;;;0.00;;
23082;SDS011;11709;52.420;10.538;2023-03-01T13:58:49;0.10;;;0.10;;
23082;SDS011;11709;52.420;10.538;2023-03-01T14:03:04;0.10;;;0.10;;
23082;SDS011;11709;52.420;10.538;2023-03-01T14:07:13;0.00;;;0.00;;
23082;SDS011;11709;52.420;10.538;2023-03-01T14:11:24;0.00;;;0.00;;
23082;SDS011;11709;52.420;10.538;2023-03-01T14:15:47;0.00;;;0.00;;
23082;SDS011;11709;52.420;10.538;2023-03-01T14:19:47;0.00;;;0.00;;
23082;SDS011;11709;52.420;10.538;2023-03-01T14:23:50;0.00;;;0.00;;
23082;SDS011;11709;52.420;10.538;2023-03-01T14:27:56;0.00;;;0.00;;
23082;SDS011;11709;52.420;10.538;2023-03-01T14:32:08;0.00;;;0.00;;
23082;SDS011;11709;52.420;10.538;2023-03-01T14:36:25;0.00;;;0.00;;
23082;SDS011;11709;52.420;10.538;2023-03-01T14:40:25;0.00;;;0.00;;
23082;SDS011;11709;52.420;10.538;2023-03-01T14:44:27;0.00;;;0.00;;
23082;SDS011;11709;52.420;10.538;2023-03-01T14:48:31;0.00;;;0.00;;
23082;SDS011;11709;52.420;10.538;2023-03-01T14:52:37;0.00;;;0.00;;
23082;SDS011;11709;52.420;10.538;2023-03-01T14:56:43;0.00;;;0.00;;
23082;SDS011;11709;52.420;10.538;2023-03-01T15:00:49;0.00;;;0.00;;
23082;SDS011;11709;52.420;10.538;2023-03-01T15:04:52;0.00;;;0.00;;
23082;SDS011;11709;52.420;10.538;2023-03-01T15:08:55;0.00;;;0.00;;
23082;SDS011;11709;52.420;10.538;2023-03-01T15:13:13;0.00;;;0.00;;
23082;SDS011;11709;52.420;10.538;2023-03-01T15:17:20;0.00;;;0.00;;
23082;SDS011;11709;52.420;10.538;2023-03-01T15:21:22;0.00;;;0.00;;
23082;SDS011;11709;52.420;10.538;2023-03-01T15:25:26;0.00;;;0.00;;
23082;SDS011;11709;52.420;10.538;2023-03-01T15:29:29;0.00;;;0.00;;
23082;SDS011;11709;52.420;10.538;2023-03-01T15:33:34;0.00;;;0.00;;
23082;SDS011;11709;52.420;10.538;2023-03-01T15:41:46;0.00;;;0.00;;
23082;SDS011;11709;52.420;10.538;2023-03-01T15:45:55;0.00;;;0.00;;
23082;SDS011;11709;52.420;10.538;2023-03-01T15:49:54;0.00;;;0.00;;
23082;SDS011;11709;52.420;10.538;2023-03-01T15:53:58;0.00;;;0.00;;
23082;SDS011;11709;52.420;10.538;2023-03-01T15:58:05;0.00;;;0.00;;
23082;SDS011;11709;52.420;10.538;2023-03-01T16:06:11;0.00;;;0.00;;
23082;SDS011;11709;52.420;10.538;2023-03-01T16:10:15;0.00;;;0.00;;
23082;SDS011;11709;52.420;10.538;2023-03-01T16:14:17;0.00;;;0.00;;
23082;SDS011;11709;52.420;10.538;2023-03-01T16:18:19;0.00;;;0.00;;
23082;SDS011;11709;52.420;10.538;2023-03-01T16:22:22;0.00;;;0.00;;
23082;SDS011;11709;52.420;10.538;2023-03-01T16:26:25;0.00;;;0.00;;
23082;SDS011;11709;52.420;10.538;2023-03-01T16:30:28;0.00;;;0.00;;
23082;SDS011;11709;52.420;10.538;2023-03-01T16:34:30;0.00;;;0.00;;
23082;SDS011;11709;52.420;10.538;2023-03-01T16:38:33;0.00;;;0.00;;
23082;SDS011;11709;52.420;10.538;2023-03-01T16:42:35;0.00;;;0.00;;
23082;SDS011;11709;52.420;10.538;2023-03-01T16:46:39;0.00;;;0.00;;
23082;SDS011;11709;52.420;10.538;2023-03-01T16:50:42;0.00;;;0.00;;
23082;SDS011;11709;52.420;10.538;2023-03-01T16:54:45;0.00;;;0.00;;
23082;SDS011;11709;52.420;10.538;2023-03-01T16:58:47;0.00;;;0.00;;
23082;SDS011;11709;52.420;10.538;2023-03-01T17:02:49;0.00;;;0.00;;
23082;SDS011;11709;52.420;10.538;2023-03-01T17:06:52;0.00;;;0.00;;
23082;SDS011;11709;52.420;10.538;2023-03-01T17:10:55;0.00;;;0.00;;
23082;SDS011;11709;52.420;10.538;2023-03-01T17:14:59;0.00;;;0.00;;
23082;SDS011;11709;52.420;10.538;2023-03-01T17:19:01;0.00;;;0.00;;
23082;SDS011;11709;52.420;10.538;2023-03-01T17:23:03;0.00;;;0.00;;
23082;SDS011;11709;52.420;10.538;2023-03-01T17:27:06;0.00;;;0.00;;
23082;SDS011;11709;52.420;10.538;2023-03-01T17:31:08;10.93;;;9.75;;
23082;SDS011;11709;52.420;10.538;2023-03-01T17:35:11;0.00;;;0.00;;
23082;SDS011;11709;52.420;10.538;2023-03-01T17:39:14;0.00;;;0.00;;
23082;SDS011;11709;52.420;10.538;2023-03-01T17:43:16;0.00;;;0.00;;
23082;SDS011;11709;52.420;10.538;2023-03-01T17:47:18;0.00;;;0.00;;
23082;SDS011;11709;52.420;10.538;2023-03-01T17:51:21;0.00;;;0.00;;
23082;SDS011;11709;52.420;10.538;2023-03-01T17:55:23;0.00;;;0.00;;
23082;SDS011;11709;52.420;10.538;2023-03-01T17:59:27;0.00;;;0.00;;
23082;SDS011;11709;52.420;10.538;2023-03-01T18:03:31;0.00;;;0.00;;
23082;SDS011;11709;52.420;10.538;2023-03-01T18:07:33;0.00;;;0.00;;
23082;SDS011;11709;52.420;10.538;2023-03-01T18:11:35;0.00;;;0.00;;
23082;SDS011;11709;52.420;10.538;2023-03-01T18:15:38;0.00;;;0.00;;
23082;SDS011;11709;52.420;10.538;2023-03-01T18:19:40;0.00;;;0.00;;
23082;SDS011;11709;52.420;10.538;2023-03-01T18:23:44;0.00;;;0.00;;
23082;SDS011;11709;52.420;10.538;2023-03-01T18:27:46;0.00;;;0.00;;
23082;SDS011;11709;52.420;10.538;2023-03-01T18:31:49;0.00;;;0.00;;
23082;SDS011;11709;52.420;10.538;2023-03-01T18:35:51;0.00;;;0.00;;
23082;SDS011;11709;52.420;10.538;2023-03-01T18:39:53;0.00;;;0.00;;
23082;SDS011;11709;52.420;10.538;2023-03-01T18:43:56;0.00;;;0.00;;
23082;SDS011;11709;52.420;10.538;2023-03-01T18:47:58;0.00;;;0.00;;
23082;SDS011;11709;52.420;10.538;2023-03-01T18:52:01;0.00;;;0.00;;
23082;SDS011;11709;52.420;10.538;2023-03-01T18:56:04;0.00;;;0.00;;
23082;SDS011;11709;52.420;10.538;2023-03-01T19:00:07;0.00;;;0.00;;
23082;SDS011;11709;52.420;10.538;2023-03-01T19:04:10;0.00;;;0.00;;
23082;SDS011;11709;52.420;10.538;2023-03-01T19:08:17;0.00;;;0.00;;
23082;SDS011;11709;52.420;10.538;2023-03-01T19:12:16;0.00;;;0.00;;
23082;SDS011;11709;52.420;10.538;2023-03-01T19:16:20;0.00;;;0.00;;
23082;SDS011;11709;52.420;10.538;2023-03-01T19:20:22;0.00;;;0.00;;
23082;SDS011;11709;52.420;10.538;2023-03-01T19:24:24;0.00;;;0.00;;
23082;SDS011;11709;52.420;10.538;2023-03-01T19:28:27;0.00;;;0.00;;
23082;SDS011;11709;52.420;10.538;2023-03-01T19:32:30;0.00;;;0.00;;
23082;SDS011;11709;52.420;10.538;2023-03-01T19:36:32;0.00;;;0.00;;
23082;SDS011;11709;52.420;10.538;2023-03-01T19:40:35;0.00;;;0.00;;
23082;SDS011;11709;52.420;10.538;2023-03-01T19:44:38;0.00;;;0.00;;
23082;SDS011;11709;52.420;10.538;2023-03-01T19:48:41;0.00;;;0.00;;
23082;SDS011;11709;52.420;10.538;2023-03-01T19:52:45;0.00;;;0.00;;
23082;SDS011;11709;52.420;10.538;2023-03-01T19:56:51;0.00;;;0.00;;
23082;SDS011;11709;52.420;10.538;2023-03-01T20:00:51;0.00;;;0.00;;
23082;SDS011;11709;52.420;10.538;2023-03-01T20:04:55;0.00;;;0.00;;
23082;SDS011;11709;52.420;10.538;2023-03-01T20:09:06;0.00;;;0.00;;
23082;SDS011;11709;52.420;10.538;2023-03-01T20:13:05;0.00;;;0.00;;
23082;SDS011;11709;52.420;10.538;2023-03-01T20:17:07;0.00;;;0.00;;
23082;SDS011;11709;52.420;10.538;2023-03-01T20:21:09;0.00;;;0.00;;
23082;SDS011;11709;52.420;10.538;2023-03-01T20:25:12;0.00;;;0.00;;
23082;SDS011;11709;52.420;10.538;2023-03-01T20:29:13;0.00;;;0.00;;
23082;SDS011;11709;52.420;10.538;2023-03-01T20:33:16;0.00;;;0.00;;
23082;SDS011;11709;52.420;10.538;2023-03-01T20:37:19;0.00;;;0.00;;
23082;SDS011;11709;52.420;10.538;2023-03-01T20:41:22;0.00;;;0.00;;
23082;SDS011;11709;52.420;10.538;2023-03-01T20:45:26;0.00;;;0.00;;
23082;SDS011;11709;52.420;10.538;2023-03-01T20:49:29;0.00;;;0.00;;
23082;SDS011;11709;52.420;10.538;2023-03-01T20:53:31;0.00;;;0.00;;
23082;SDS011;11709;52.420;10.538;2023-03-01T20:57:34;0.00;;;0.00;;
23082;SDS011;11709;52.420;10.538;2023-03-01T21:01:36;0.00;;;0.00;;
23082;SDS011;11709;52.420;10.538;2023-03-01T21:05:40;0.00;;;0.00;;
23082;SDS011;11709;52.420;10.538;2023-03-01T21:09:42;0.00;;;0.00;;
23082;SDS011;11709;52.420;10.538;2023-03-01T21:13:45;0.00;;;0.00;;
23082;SDS011;11709;52.420;10.538;2023-03-01T21:17:47;0.00;;;0.00;;
23082;SDS011;11709;52.420;10.538;2023-03-01T21:21:49;0.00;;;0.00;;
23082;SDS011;11709;52.420;10.538;2023-03-01T21:25:58;0.00;;;0.00;;
23082;SDS011;11709;52.420;10.538;2023-03-01T21:30:01;0.00;;;0.00;;
23082;SDS011;11709;52.420;10.538;2023-03-01T21:34:03;0.00;;;0.00;;
23082;SDS011;11709;52.420;10.538;2023-03-01T21:38:07;0.00;;;0.00;;
23082;SDS011;11709;52.420;10.538;2023-03-01T21:42:09;0.00;;;0.00;;
23082;SDS011;11709;52.420;10.538;2023-03-01T21:46:14;0.00;;;0.00;;
23082;SDS011;11709;52.420;10.538;2023-03-01T21:50:15;0.00;;;0.00;;
23082;SDS011;11709;52.420;10.538;2023-03-01T21:54:19;0.00;;;0.00;;
23082;SDS011;11709;52.420;10.538;2023-03-01T21:58:21;0.00;;;0.00;;
23082;SDS011;11709;52.420;10.538;2023-03-01T22:02:23;0.00;;;0.00;;
23082;SDS011;11709;52.420;10.538;2023-03-01T22:06:27;0.00;;;0.00;;
23082;SDS011;11709;52.420;10.538;2023-03-01T22:10:37;0.00;;;0.00;;
23082;SDS011;11709;52.420;10.538;2023-03-01T22:14:39;0.00;;;0.00;;
23082;SDS011;11709;52.420;10.538;2023-03-01T22:18:43;0.00;;;0.00;;
23082;SDS011;11709;52.420;10.538;2023-03-01T22:22:45;0.00;;;0.00;;
23082;SDS011;11709;52.420;10.538;2023-03-01T22:26:48;0.00;;;0.00;;
23082;SDS011;11709;52.420;10.538;2023-03-01T22:30:52;0.00;;;0.00;;
23082;SDS011;11709;52.420;10.538;2023-03-01T22:34:54;0.00;;;0.00;;
23082;SDS011;11709;52.420;10.538;2023-03-01T22:38:56;0.00;;;0.00;;
23082;SDS011;11709;52.420;10.538;2023-03-01T22:43:00;0.00;;;0.00;;
23082;SDS011;11709;52.420;10.538;2023-03-01T22:47:02;0.00;;;0.00;;
23082;SDS011;11709;52.420;10.538;2023-03-01T22:51:05;0.00;;;0.00;;
23082;SDS011;11709;52.420;10.538;2023-03-01T22:55:08;0.00;;;0.00;;
23082;SDS011;11709;52.420;10.538;2023-03-01T22:59:11;0.00;;;0.00;;
23082;SDS011;11709;52.420;10.538;2023-03-01T23:03:13;0.00;;;0.00;;
23082;SDS011;11709;52.420;10.538;2023-03-01T23:07:18;0.00;;;0.00;;
23082;SDS011;11709;52.420;10.538;2023-03-01T23:11:20;0.00;;;0.00;;
23082;SDS011;11709;52.420;10.538;2023-03-01T23:15:23;0.00;;;0.00;;
23082;SDS011;11709;52.420;10.538;2023-03-01T23:19:25;0.00;;;0.00;;
23082;SDS011;11709;52.420;10.538;2023-03-01T23:23:27;0.00;;;0.00;;
23082;SDS011;11709;52.420;10.538;2023-03-01T23:27:29;0.00;;;0.00;;
23082;SDS011;11709;52.420;10.538;2023-03-01T23:31:32;0.00;;;0.00;;
23082;SDS011;11709;52.420;10.538;2023-03-01T23:35:37;0.00;;;0.00;;
23082;SDS011;11709;52.420;10.538;2023-03-01T23:39:38;0.00;;;0.00;;
23082;SDS011;11709;52.420;10.538;2023-03-01T23:43:44;0.00;;;0.00;;
23082;SDS011;11709;52.420;10.538;2023-03-01T23:47:46;0.00;;;0.00;;
23082;SDS011;11709;52.420;10.538;2023-03-01T23:51:49;0.00;;;0.00;;
23082;SDS011;11709;52.420;10.538;2023-03-01T23:55:52;0.00;;;0.00;;
23082;SDS011;11709;52.420;10.538;2023-03-01T23:59:54;0.00;;;0.00;;
